createdAt,value
2023-04-15T00:00:40.916Z,17.92
2023-04-15T00:03:08.909Z,17.85
2023-04-15T00:05:40.051Z,17.60
2023-04-15T00:08:07.847Z,16.38
2023-04-15T00:10:35.612Z,15.80
2023-04-15T00:13:07.808Z,17.13
2023-04-15T00:15:36.790Z,16.25
2023-04-15T00:18:05.823Z,16.92
2023-04-15T00:20:33.797Z,16.45
2023-04-15T00:23:02.848Z,16.95
2023-04-15T00:25:30.434Z,17.05
2023-04-15T00:27:58.168Z,16.33
2023-04-15T00:30:26.393Z,18.23
2023-04-15T00:32:54.448Z,18.33
2023-04-15T00:35:23.409Z,17.85
2023-04-15T00:37:51.682Z,17.73
2023-04-15T00:40:21.675Z,18.25
2023-04-15T00:42:50.101Z,16.27
2023-04-15T00:45:17.841Z,19.58
2023-04-15T00:47:45.822Z,19.55
2023-04-15T00:50:14.172Z,19.10
2023-04-15T00:52:43.325Z,17.35
2023-04-15T00:55:11.093Z,19.15
2023-04-15T00:57:59.164Z,19.70
2023-04-15T01:00:27.491Z,19.08
2023-04-15T01:02:56.030Z,18.70
2023-04-15T01:05:24.059Z,21.05
2023-04-15T01:07:53.297Z,19.52
2023-04-15T01:10:20.900Z,17.42
2023-04-15T01:12:49.781Z,20.60
2023-04-15T01:15:17.887Z,20.55
2023-04-15T01:17:45.774Z,19.17
2023-04-15T01:20:14.789Z,18.67
2023-04-15T01:22:43.318Z,18.08
2023-04-15T01:25:17.641Z,19.67
2023-04-15T01:27:47.022Z,20.27
2023-04-15T01:30:14.608Z,19.55
2023-04-15T01:32:43.177Z,20.67
2023-04-15T01:35:11.295Z,20.48
2023-04-15T01:37:38.890Z,20.05
2023-04-15T01:40:08.316Z,18.35
2023-04-15T01:42:36.930Z,18.10
2023-04-15T01:45:08.479Z,21.58
2023-04-15T01:47:37.297Z,20.20
2023-04-15T01:50:05.837Z,20.83
2023-04-15T01:52:33.857Z,18.20
2023-04-15T01:55:01.722Z,18.40
2023-04-15T01:57:30.002Z,18.25
2023-04-15T01:59:57.532Z,18.33
2023-04-15T02:02:26.966Z,17.50
2023-04-15T02:04:54.866Z,17.23
2023-04-15T02:07:22.554Z,18.38
2023-04-15T02:09:50.230Z,19.05
2023-04-15T02:12:18.198Z,19.33
2023-04-15T02:14:45.872Z,21.08
2023-04-15T02:17:20.219Z,19.70
2023-04-15T02:19:51.432Z,20.17
2023-04-15T02:22:19.883Z,19.55
2023-04-15T02:24:47.424Z,20.52
2023-04-15T02:27:18.768Z,22.15
2023-04-15T02:29:46.930Z,21.23
2023-04-15T02:32:14.517Z,20.15
2023-04-15T02:34:43.715Z,22.70
2023-04-15T02:37:13.770Z,21.38
2023-04-15T02:39:41.465Z,23.40
2023-04-15T02:42:10.837Z,20.75
2023-04-15T02:44:38.756Z,21.38
2023-04-15T02:47:06.612Z,20.88
2023-04-15T02:49:35.392Z,23.40
2023-04-15T02:52:03.277Z,22.40
2023-04-15T02:54:32.556Z,20.95
2023-04-15T02:57:01.034Z,22.60
2023-04-15T02:59:29.526Z,24.50
2023-04-15T03:01:57.270Z,24.13
2023-04-15T03:04:24.896Z,24.92
2023-04-15T03:06:52.868Z,24.15
2023-04-15T03:09:20.787Z,24.63
2023-04-15T03:11:49.840Z,23.77
2023-04-15T03:14:17.781Z,24.88
2023-04-15T03:16:46.605Z,26.20
2023-04-15T03:19:14.483Z,25.48
2023-04-15T03:21:42.302Z,26.10
2023-04-15T03:24:09.981Z,28.45
2023-04-15T03:26:38.668Z,27.75
2023-04-15T03:29:07.785Z,24.77
2023-04-15T03:31:36.977Z,27.65
2023-04-15T03:34:05.791Z,23.70
2023-04-15T03:36:48.023Z,26.15
2023-04-15T03:39:15.695Z,24.75
2023-04-15T03:41:43.757Z,24.65
2023-04-15T03:44:13.032Z,22.65
2023-04-15T03:46:40.823Z,22.75
2023-04-15T03:49:08.395Z,22.98
2023-04-15T03:51:39.172Z,20.13
2023-04-15T03:54:06.978Z,21.73
2023-04-15T03:56:34.616Z,20.77
2023-04-15T03:59:02.646Z,22.65
2023-04-15T04:01:32.041Z,22.55
2023-04-15T04:03:59.939Z,21.25
2023-04-15T04:06:28.758Z,21.85
2023-04-15T04:08:56.743Z,21.08
2023-04-15T04:11:24.691Z,21.85
2023-04-15T04:13:56.272Z,19.27
2023-04-15T04:16:26.987Z,19.75
2023-04-15T04:18:56.220Z,18.42
2023-04-15T04:21:23.797Z,19.90
2023-04-15T04:23:53.464Z,18.92
2023-04-15T04:26:21.676Z,19.52
2023-04-15T04:28:49.249Z,20.52
2023-04-15T04:31:17.075Z,19.45
2023-04-15T04:33:45.306Z,21.17
2023-04-15T04:36:14.422Z,20.70
2023-04-15T04:38:42.078Z,19.92
2023-04-15T04:41:10.002Z,23.38
2023-04-15T04:43:37.684Z,23.55
2023-04-15T04:46:05.755Z,22.98
2023-04-15T04:48:33.495Z,24.77
2023-04-15T04:51:01.347Z,23.65
2023-04-15T04:53:35.352Z,25.13
2023-04-15T04:56:03.287Z,25.83
2023-04-15T04:58:31.000Z,24.85
2023-04-15T05:01:00.401Z,26.38
2023-04-15T05:03:29.009Z,26.20
2023-04-15T05:05:56.962Z,25.73
2023-04-15T05:08:29.747Z,27.73
2023-04-15T05:10:59.111Z,24.77
2023-04-15T05:13:26.707Z,28.40
2023-04-15T05:15:54.577Z,27.38
2023-04-15T05:18:23.783Z,25.02
2023-04-15T05:20:51.525Z,25.55
2023-04-15T05:23:19.658Z,26.67
2023-04-15T05:25:50.300Z,27.50
2023-04-15T05:28:19.469Z,24.48
2023-04-15T05:30:47.233Z,26.83
2023-04-15T05:33:15.312Z,24.88
2023-04-15T05:35:42.904Z,26.75
2023-04-15T05:38:10.693Z,24.25
2023-04-15T05:40:38.297Z,25.63
2023-04-15T05:43:08.886Z,23.05
2023-04-15T05:45:44.166Z,24.30
2023-04-15T05:48:11.971Z,24.42
2023-04-15T05:50:41.438Z,23.15
2023-04-15T05:53:09.079Z,23.90
2023-04-15T05:55:37.272Z,24.83
2023-04-15T05:58:05.036Z,23.92
2023-04-15T06:00:32.859Z,23.50
2023-04-15T06:03:02.986Z,23.88
2023-04-15T06:05:31.134Z,27.23
2023-04-15T06:07:58.815Z,25.23
2023-04-15T06:10:26.648Z,25.60
2023-04-15T06:12:54.537Z,24.92
2023-04-15T06:15:22.457Z,26.08
2023-04-15T06:17:50.241Z,26.70
2023-04-15T06:20:19.883Z,25.98
2023-04-15T06:22:47.927Z,25.42
2023-04-15T06:25:15.667Z,27.23
2023-04-15T06:27:43.674Z,24.08
2023-04-15T06:30:11.884Z,26.02
2023-04-15T06:32:40.343Z,23.40
2023-04-15T06:35:08.858Z,24.25
2023-04-15T06:37:37.895Z,23.95
2023-04-15T06:40:06.604Z,23.23
2023-04-15T06:42:35.326Z,25.05
2023-04-15T06:45:02.996Z,23.42
2023-04-15T06:47:30.740Z,25.10
2023-04-15T06:49:58.490Z,23.13
2023-04-15T06:52:30.591Z,22.42
2023-04-15T06:55:01.092Z,22.50
2023-04-15T06:57:29.221Z,21.27
2023-04-15T06:59:59.033Z,22.23
2023-04-15T07:02:29.667Z,22.48
2023-04-15T07:04:57.445Z,20.83
2023-04-15T07:07:25.332Z,19.45
2023-04-15T07:09:54.154Z,21.40
2023-04-15T07:12:23.412Z,19.52
2023-04-15T07:14:51.162Z,21.90
2023-04-15T07:17:18.724Z,20.88
2023-04-15T07:19:46.972Z,20.67
2023-04-15T07:22:15.045Z,20.35
2023-04-15T07:24:42.629Z,20.25
2023-04-15T07:27:10.359Z,20.85
2023-04-15T07:29:39.915Z,20.15
2023-04-15T07:32:07.629Z,19.95
2023-04-15T07:34:36.222Z,19.98
2023-04-15T07:37:04.755Z,18.90
2023-04-15T07:39:32.585Z,19.35
2023-04-15T07:42:03.054Z,19.45
2023-04-15T07:44:32.344Z,18.77
2023-04-15T07:47:02.772Z,19.67
2023-04-15T07:49:31.930Z,18.80
2023-04-15T07:51:59.940Z,18.20
2023-04-15T07:54:27.685Z,20.38
2023-04-15T07:56:55.304Z,17.30
2023-04-15T07:59:26.814Z,19.23
2023-04-15T08:01:54.558Z,19.92
2023-04-15T08:04:23.821Z,18.38
2023-04-15T08:06:56.111Z,19.33
2023-04-15T08:09:23.997Z,17.10
2023-04-15T08:11:51.874Z,18.45
2023-04-15T08:14:20.265Z,18.05
2023-04-15T08:16:47.910Z,16.40
2023-04-15T08:19:15.621Z,17.48
2023-04-15T08:21:45.188Z,19.13
2023-04-15T08:24:12.783Z,17.58
2023-04-15T08:26:43.799Z,16.52
2023-04-15T08:29:13.708Z,16.17
2023-04-15T08:31:41.555Z,18.55
2023-04-15T08:34:15.811Z,14.90
2023-04-15T08:36:45.251Z,16.83
2023-04-15T08:39:14.765Z,16.45
2023-04-15T08:41:46.927Z,17.02
2023-04-15T08:44:15.957Z,17.23
2023-04-15T08:46:45.738Z,15.77
2023-04-15T08:49:13.908Z,17.55
2023-04-15T08:51:45.925Z,15.73
2023-04-15T08:54:16.154Z,15.35
2023-04-15T08:56:44.402Z,16.75
2023-04-15T08:59:12.534Z,14.98
2023-04-15T09:01:40.761Z,15.85
2023-04-15T09:04:08.896Z,16.88
2023-04-15T09:06:37.284Z,14.70
2023-04-15T09:09:06.663Z,16.35
2023-04-15T09:11:35.337Z,22.00
2023-04-15T09:14:02.978Z,17.65
2023-04-15T09:16:31.257Z,17.90
2023-04-15T09:18:58.835Z,16.40
2023-04-15T09:21:26.825Z,16.58
2023-04-15T09:23:56.862Z,17.40
2023-04-15T09:26:33.758Z,17.48
2023-04-15T09:29:08.237Z,17.67
2023-04-15T09:31:38.924Z,16.70
2023-04-15T09:34:07.500Z,14.77
2023-04-15T09:36:56.320Z,16.10
2023-04-15T09:39:24.267Z,15.60
2023-04-15T09:42:08.889Z,13.32
2023-04-15T09:44:37.567Z,15.65
2023-04-15T09:47:08.114Z,15.68
2023-04-15T09:49:36.147Z,16.05
2023-04-15T09:52:05.816Z,15.38
2023-04-15T09:57:08.522Z,16.00
2023-04-15T09:59:36.285Z,16.88
2023-04-15T10:02:05.804Z,14.10
2023-04-15T10:04:36.285Z,15.50
2023-04-15T10:07:09.578Z,14.88
2023-04-15T10:09:39.074Z,15.98
2023-04-15T10:12:11.832Z,14.35
2023-04-15T10:14:41.265Z,16.17
2023-04-15T10:17:11.975Z,13.90
2023-04-15T10:22:08.492Z,14.98
2023-04-15T10:24:36.775Z,14.75
2023-04-15T10:27:05.997Z,17.15
2023-04-15T10:29:35.147Z,14.05
2023-04-15T10:32:03.735Z,14.07
2023-04-15T10:34:32.721Z,13.85
2023-04-15T10:37:02.673Z,14.13
2023-04-15T10:39:43.929Z,13.93
2023-04-15T10:42:13.232Z,14.65
2023-04-15T10:44:48.758Z,16.63
2023-04-15T10:47:18.122Z,15.82
2023-04-15T10:49:50.467Z,16.50
2023-04-15T10:52:23.051Z,13.63
2023-04-15T10:54:50.939Z,14.38
2023-04-15T10:57:23.478Z,13.40
2023-04-15T11:00:10.198Z,14.30
2023-04-15T11:02:42.823Z,15.25
2023-04-15T11:05:12.151Z,14.27
2023-04-15T11:07:47.025Z,14.50
2023-04-15T11:10:54.408Z,13.65
2023-04-15T11:13:28.584Z,12.85
2023-04-15T11:15:59.739Z,14.75
2023-04-15T11:18:32.717Z,13.85
2023-04-15T11:21:06.155Z,12.48
2023-04-15T11:23:38.780Z,12.48
2023-04-15T11:26:08.034Z,12.27
2023-04-15T11:28:37.449Z,12.63
2023-04-15T11:31:10.274Z,12.50
2023-04-15T11:33:46.040Z,13.20
2023-04-15T11:36:13.851Z,11.57
2023-04-15T11:38:46.912Z,11.48
2023-04-15T11:41:14.524Z,11.23
2023-04-15T11:43:42.653Z,10.65
2023-04-15T11:46:12.208Z,10.70
2023-04-15T11:48:44.470Z,9.38
2023-04-15T11:51:13.397Z,9.02
2023-04-15T11:53:42.933Z,8.88
2023-04-15T11:56:11.892Z,8.07
2023-04-15T11:58:39.506Z,9.27
2023-04-15T12:01:08.071Z,8.18
2023-04-15T12:03:41.963Z,8.13
2023-04-15T12:06:12.624Z,7.88
2023-04-15T12:09:08.463Z,7.70
2023-04-15T12:11:39.053Z,7.53
2023-04-15T12:14:09.800Z,7.53
2023-04-15T12:16:49.410Z,7.90
2023-04-15T12:19:24.395Z,7.70
2023-04-15T12:21:53.858Z,7.43
2023-04-15T12:24:22.286Z,7.45
2023-04-15T12:26:51.484Z,7.22
2023-04-15T12:29:20.251Z,8.18
2023-04-15T12:31:49.890Z,7.72
2023-04-15T12:34:25.530Z,8.10
2023-04-15T12:36:53.345Z,7.70
2023-04-15T12:39:22.866Z,7.18
2023-04-15T12:41:50.493Z,6.65
2023-04-15T12:44:18.225Z,7.30
2023-04-15T12:46:46.330Z,7.97
2023-04-15T12:49:14.109Z,7.50
2023-04-15T12:51:43.282Z,6.90
2023-04-15T12:54:11.022Z,7.13
2023-04-15T12:56:38.850Z,8.02
2023-04-15T12:59:06.412Z,7.38
2023-04-15T13:01:34.203Z,7.00
2023-04-15T13:04:02.174Z,7.82
2023-04-15T13:06:30.606Z,7.28
2023-04-15T13:08:59.733Z,8.02
2023-04-15T13:11:28.307Z,8.35
2023-04-15T13:13:55.888Z,8.13
2023-04-15T13:16:23.956Z,7.90
2023-04-15T13:18:51.957Z,9.75
2023-04-15T13:21:20.739Z,8.63
2023-04-15T13:23:49.371Z,8.43
2023-04-15T13:26:19.100Z,9.05
2023-04-15T13:28:47.561Z,9.32
2023-04-15T13:31:15.164Z,8.95
2023-04-15T13:33:44.428Z,10.32
2023-04-15T13:36:12.051Z,9.68
2023-04-15T13:38:39.912Z,10.52
2023-04-15T13:41:07.577Z,10.18
2023-04-15T13:43:36.601Z,10.02
2023-04-15T13:46:04.734Z,10.15
2023-04-15T13:48:32.669Z,9.70
2023-04-15T13:51:00.251Z,10.43
2023-04-15T13:53:34.891Z,12.63
2023-04-15T13:56:07.100Z,9.63
2023-04-15T13:58:36.547Z,10.23
2023-04-15T14:01:06.153Z,10.48
2023-04-15T14:03:35.221Z,9.77
2023-04-15T14:06:03.386Z,10.63
2023-04-15T14:08:31.393Z,11.05
2023-04-15T14:10:59.350Z,10.77
2023-04-15T14:13:27.063Z,9.70
2023-04-15T14:15:57.086Z,10.93
2023-04-15T14:18:24.982Z,9.88
2023-04-15T14:20:52.677Z,9.88
2023-04-15T14:23:20.748Z,11.23
2023-04-15T14:25:48.664Z,11.05
2023-04-15T14:28:16.430Z,9.93
2023-04-15T14:30:44.068Z,10.48
2023-04-15T14:33:13.688Z,10.75
2023-04-15T14:35:41.308Z,11.85
2023-04-15T14:38:09.085Z,11.25
2023-04-15T14:40:36.952Z,11.65
2023-04-15T14:43:04.619Z,11.95
2023-04-15T14:45:32.792Z,11.88
2023-04-15T14:48:00.473Z,10.77
2023-04-15T14:50:29.681Z,11.75
2023-04-15T14:52:57.427Z,16.10
2023-04-15T14:55:25.537Z,13.20
2023-04-15T14:57:53.093Z,12.40
2023-04-15T15:00:20.759Z,11.98
2023-04-15T15:02:49.452Z,11.68
2023-04-15T15:05:17.477Z,12.50
2023-04-15T15:07:46.659Z,12.02
2023-04-15T15:10:14.481Z,11.30
2023-04-15T15:12:42.706Z,13.00
2023-04-15T15:15:24.984Z,10.98
2023-04-15T15:17:56.588Z,12.57
2023-04-15T15:20:24.982Z,12.65
2023-04-15T15:22:54.357Z,13.68
2023-04-15T15:25:22.382Z,16.55
2023-04-15T15:27:50.649Z,13.38
2023-04-15T15:30:18.299Z,12.40
2023-04-15T15:32:47.294Z,11.70
2023-04-15T15:35:15.270Z,12.88
2023-04-15T15:37:43.052Z,12.35
2023-04-15T15:40:13.030Z,12.50
2023-04-15T15:42:40.840Z,12.35
2023-04-15T15:45:08.933Z,12.70
2023-04-15T15:47:36.901Z,13.43
2023-04-15T15:50:06.258Z,14.43
2023-04-15T15:52:34.172Z,13.02
2023-04-15T15:55:01.892Z,13.45
2023-04-15T15:57:34.480Z,14.05
2023-04-15T16:02:59.912Z,15.43
2023-04-15T16:05:20.492Z,15.40
2023-04-15T16:07:48.435Z,15.77
2023-04-15T16:10:16.058Z,15.48
2023-04-15T16:12:45.547Z,15.23
2023-04-15T16:15:13.558Z,15.15
2023-04-15T16:17:41.573Z,16.45
2023-04-15T16:20:10.072Z,15.32
2023-04-15T16:22:37.699Z,15.98
2023-04-15T16:25:07.909Z,15.77
2023-04-15T16:27:46.752Z,15.02
2023-04-15T16:30:26.698Z,17.58
2023-04-15T16:32:54.781Z,18.13
2023-04-15T16:35:22.395Z,17.50
2023-04-15T16:37:49.946Z,17.20
2023-04-15T16:40:17.862Z,16.08
2023-04-15T16:42:45.572Z,16.83
2023-04-15T16:45:13.149Z,16.20
2023-04-15T16:47:47.338Z,17.05
2023-04-15T16:50:15.139Z,18.17
2023-04-15T16:52:43.173Z,17.75
2023-04-15T16:55:10.776Z,17.85
2023-04-15T16:57:53.186Z,17.35
2023-04-15T17:00:26.499Z,16.52
2023-04-15T17:02:56.529Z,18.42
2023-04-15T17:05:27.080Z,18.75
2023-04-15T17:07:54.964Z,16.75
2023-04-15T17:10:23.152Z,19.85
2023-04-15T17:12:51.354Z,18.55
2023-04-15T17:15:19.369Z,19.98
2023-04-15T17:17:46.994Z,20.00
2023-04-15T17:20:16.204Z,20.45
2023-04-15T17:22:43.934Z,22.05
2023-04-15T17:25:11.540Z,19.95
2023-04-15T17:27:39.395Z,22.00
2023-04-15T17:30:08.440Z,20.95
2023-04-15T17:32:40.002Z,20.02
2023-04-15T17:35:08.692Z,21.13
2023-04-15T17:37:38.944Z,24.23
2023-04-15T17:40:08.756Z,24.88
2023-04-15T17:42:36.888Z,25.00
2023-04-15T17:45:05.480Z,25.33
2023-04-15T17:47:36.320Z,24.10
2023-04-15T17:50:05.045Z,24.38
2023-04-15T17:52:33.196Z,23.52
2023-04-15T17:55:02.368Z,25.73
2023-04-15T17:57:30.148Z,26.38
2023-04-15T17:59:57.816Z,26.27
2023-04-15T18:02:25.837Z,26.48
2023-04-15T18:04:53.817Z,25.98
2023-04-15T18:07:21.779Z,27.45
2023-04-15T18:09:49.533Z,29.23
2023-04-15T18:12:18.735Z,29.65
2023-04-15T18:14:46.638Z,28.25
2023-04-15T18:17:14.548Z,28.98
2023-04-15T18:19:42.516Z,31.58
2023-04-15T18:22:10.167Z,29.73
2023-04-15T18:24:38.020Z,29.77
2023-04-15T18:27:05.808Z,29.90
2023-04-15T18:29:35.241Z,31.85
2023-04-15T18:32:03.215Z,30.20
2023-04-15T18:34:31.228Z,30.80
2023-04-15T18:36:59.115Z,31.45
2023-04-15T18:39:27.220Z,31.02
2023-04-15T18:41:55.857Z,32.92
2023-04-15T18:44:23.444Z,31.85
2023-04-15T18:46:52.612Z,32.38
2023-04-15T18:49:20.254Z,32.47
2023-04-15T18:51:50.267Z,32.35
2023-04-15T18:54:17.985Z,33.67
2023-04-15T18:56:46.186Z,33.20
2023-04-15T18:59:29.782Z,32.60
2023-04-15T19:02:00.464Z,33.38
2023-04-15T19:04:28.334Z,32.05
2023-04-15T19:06:56.311Z,32.63
2023-04-15T19:09:24.728Z,33.15
2023-04-15T19:11:52.527Z,35.70
2023-04-15T19:14:20.070Z,34.78
2023-04-15T19:16:48.111Z,37.45
2023-04-15T19:19:17.105Z,37.17
2023-04-15T19:21:44.866Z,36.38
2023-04-15T19:24:14.092Z,37.50
2023-04-15T19:26:41.838Z,37.67
2023-04-15T19:29:09.544Z,39.08
2023-04-15T19:31:37.468Z,39.13
2023-04-15T19:34:05.166Z,38.40
2023-04-15T19:36:34.256Z,37.67
2023-04-15T19:39:02.733Z,38.10
2023-04-15T19:41:31.822Z,39.90
2023-04-15T19:43:59.886Z,38.97
2023-04-15T19:46:29.226Z,38.85
2023-04-15T19:49:00.010Z,37.67
2023-04-15T19:51:28.330Z,38.50
2023-04-15T19:53:57.923Z,35.65
2023-04-15T19:56:25.490Z,32.75
2023-04-15T19:58:53.288Z,33.95
2023-04-15T20:01:22.001Z,37.15
2023-04-15T20:03:49.864Z,34.58
2023-04-15T20:06:17.877Z,33.15
2023-04-15T20:08:46.333Z,32.50
2023-04-15T20:11:15.402Z,33.38
2023-04-15T20:13:43.204Z,33.03
2023-04-15T20:16:11.363Z,33.30
2023-04-15T20:18:39.831Z,37.28
2023-04-15T20:21:07.545Z,33.42
2023-04-15T20:23:35.631Z,33.83
2023-04-15T20:26:03.197Z,31.48
2023-04-15T20:28:32.613Z,33.90
2023-04-15T20:31:01.236Z,32.33
2023-04-15T20:33:30.308Z,29.77
2023-04-15T20:35:58.048Z,28.10
2023-04-15T20:38:25.947Z,28.70
2023-04-15T20:40:53.487Z,29.70
2023-04-15T20:43:22.281Z,28.38
2023-04-15T20:45:51.602Z,27.90
2023-04-15T20:48:19.451Z,28.65
2023-04-15T20:50:47.105Z,30.88
2023-04-15T20:53:14.809Z,27.77
2023-04-15T20:55:42.652Z,25.83
2023-04-15T20:58:10.789Z,28.92
2023-04-15T21:00:38.568Z,28.02
2023-04-15T21:03:07.804Z,28.00
2023-04-15T21:05:35.942Z,28.40
2023-04-15T21:08:04.095Z,27.50
2023-04-15T21:10:33.633Z,28.17
2023-04-15T21:13:01.439Z,28.48
2023-04-15T21:15:29.232Z,27.77
2023-04-15T21:17:57.114Z,33.05
2023-04-15T21:20:26.344Z,31.90
2023-04-15T21:22:54.061Z,33.95
2023-04-15T21:25:21.811Z,35.53
2023-04-15T21:27:49.824Z,34.33
2023-04-15T21:30:17.622Z,36.92
2023-04-15T21:32:45.747Z,37.78
2023-04-15T21:35:13.604Z,35.50
2023-04-15T21:37:42.768Z,37.03
2023-04-15T21:40:10.686Z,36.03
2023-04-15T21:42:39.257Z,36.38
2023-04-15T21:45:07.755Z,37.13
2023-04-15T21:48:04.594Z,38.10
2023-04-15T21:50:23.183Z,39.22
2023-04-15T21:52:52.329Z,36.67
2023-04-15T21:55:21.257Z,35.65
2023-04-15T21:57:49.200Z,36.33
2023-04-15T22:00:17.101Z,35.53
2023-04-15T22:02:46.115Z,36.83
2023-04-15T22:05:14.050Z,40.03
2023-04-15T22:07:41.913Z,40.85
2023-04-15T22:10:11.353Z,38.75
2023-04-15T22:12:40.706Z,37.58
2023-04-15T22:15:09.076Z,38.65
2023-04-15T22:17:37.271Z,40.47
2023-04-15T22:20:06.098Z,39.80
2023-04-15T22:22:43.971Z,39.00
2023-04-15T22:25:14.514Z,38.53
2023-04-15T22:27:43.329Z,39.22
2023-04-15T22:30:12.222Z,39.20
2023-04-15T22:32:40.228Z,38.58
2023-04-15T22:35:08.797Z,36.92
2023-04-15T22:37:36.490Z,38.33
2023-04-15T22:40:05.179Z,36.17
2023-04-15T22:42:34.509Z,36.03
2023-04-15T22:45:02.058Z,37.28
2023-04-15T22:47:30.210Z,37.05
2023-04-15T22:49:57.825Z,38.85
2023-04-15T22:52:30.601Z,38.42
2023-04-15T22:54:59.217Z,38.65
2023-04-15T22:57:27.782Z,37.83
2023-04-15T22:59:56.775Z,37.65
2023-04-15T23:02:25.047Z,36.42
2023-04-15T23:04:53.149Z,37.22
2023-04-15T23:07:20.872Z,37.47
2023-04-15T23:09:48.707Z,34.90
2023-04-15T23:12:16.427Z,36.58
2023-04-15T23:14:44.022Z,36.00
2023-04-15T23:17:13.494Z,37.40
2023-04-15T23:19:41.018Z,38.03
2023-04-15T23:22:08.703Z,38.00
2023-04-15T23:24:37.181Z,35.28
2023-04-15T23:27:04.702Z,35.58
2023-04-15T23:29:32.504Z,35.50
2023-04-15T23:32:00.617Z,34.92
2023-04-15T23:34:29.773Z,37.08
2023-04-15T23:36:57.305Z,34.60
2023-04-15T23:39:25.190Z,35.55
2023-04-15T23:41:53.227Z,36.38
2023-04-15T23:44:21.112Z,36.05
2023-04-15T23:46:49.299Z,34.10
2023-04-15T23:49:18.947Z,35.60
2023-04-15T23:51:49.372Z,33.03
2023-04-15T23:54:17.109Z,33.33
2023-04-15T23:56:44.678Z,31.48
2023-04-15T23:59:12.834Z,31.02
